sensor_id;sensor_type;location;lat;lon;timestamp;pressure;altitude;pressure_sealevel;temperature;humidity
67740;BME280;54536;50.090;14.420;2024-02-21T00:01:04;100241.72;;;11.22;52.11
67740;BME280;54536;50.090;14.420;2024-02-21T00:03:45;100241.59;;;11.13;52.29
67740;BME280;54536;50.090;14.420;2024-02-21T00:06:11;100236.94;;;11.16;52.47
67740;BME280;54536;50.090;14.420;2024-02-21T00:08:37;100231.44;;;11.19;52.43
67740;BME280;54536;50.090;14.420;2024-02-21T00:11:04;100217.31;;;11.20;52.47
67740;BME280;54536;50.090;14.420;2024-02-21T00:13:30;100216.59;;;11.30;51.88
67740;BME280;54536;50.090;14.420;2024-02-21T00:15:56;100206.78;;;11.20;52.28
67740;BME280;54536;50.090;14.420;2024-02-21T00:18:22;100211.44;;;11.17;52.17
67740;BME280;54536;50.090;14.420;2024-02-21T00:20:48;100204.97;;;11.21;52.37
67740;BME280;54536;50.090;14.420;2024-02-21T00:23:14;100199.84;;;11.31;52.10
67740;BME280;54536;50.090;14.420;2024-02-21T00:25:40;100193.16;;;11.27;51.96
67740;BME280;54536;50.090;14.420;2024-02-21T00:28:07;100198.88;;;11.43;51.80
67740;BME280;54536;50.090;14.420;2024-02-21T00:30:33;100197.44;;;11.28;52.36
67740;BME280;54536;50.090;14.420;2024-02-21T00:32:59;100201.28;;;11.23;52.26
67740;BME280;54536;50.090;14.420;2024-02-21T00:35:25;100195.53;;;11.30;52.47
67740;BME280;54536;50.090;14.420;2024-02-21T00:37:51;100197.56;;;11.26;52.67
67740;BME280;54536;50.090;14.420;2024-02-21T00:40:17;100190.88;;;11.22;52.61
67740;BME280;54536;50.090;14.420;2024-02-21T00:42:46;100190.50;;;11.04;53.01
67740;BME280;54536;50.090;14.420;2024-02-21T00:45:12;100184.78;;;11.10;53.01
67740;BME280;54536;50.090;14.420;2024-02-21T00:47:38;100185.75;;;11.09;53.40
67740;BME280;54536;50.090;14.420;2024-02-21T00:50:05;100181.28;;;11.21;53.45
67740;BME280;54536;50.090;14.420;2024-02-21T00:52:32;100183.00;;;11.22;53.36
67740;BME280;54536;50.090;14.420;2024-02-21T00:54:58;100178.44;;;11.13;53.50
67740;BME280;54536;50.090;14.420;2024-02-21T00:57:24;100178.53;;;11.11;53.69
67740;BME280;54536;50.090;14.420;2024-02-21T00:59:50;100173.75;;;11.16;53.97
67740;BME280;54536;50.090;14.420;2024-02-21T01:02:16;100170.06;;;11.19;53.53
67740;BME280;54536;50.090;14.420;2024-02-21T01:04:43;100174.72;;;11.04;53.49
67740;BME280;54536;50.090;14.420;2024-02-21T01:07:08;100163.81;;;11.20;53.66
67740;BME280;54536;50.090;14.420;2024-02-21T01:09:35;100165.28;;;11.13;53.61
67740;BME280;54536;50.090;14.420;2024-02-21T01:12:01;100159.31;;;10.99;54.03
67740;BME280;54536;50.090;14.420;2024-02-21T01:14:27;100165.78;;;10.95;54.13
67740;BME280;54536;50.090;14.420;2024-02-21T01:16:53;100155.72;;;10.89;54.37
67740;BME280;54536;50.090;14.420;2024-02-21T01:19:19;100154.16;;;10.98;54.53
67740;BME280;54536;50.090;14.420;2024-02-21T01:21:45;100152.84;;;10.92;54.47
67740;BME280;54536;50.090;14.420;2024-02-21T01:24:11;100143.38;;;11.12;54.18
67740;BME280;54536;50.090;14.420;2024-02-21T01:26:37;100134.88;;;10.97;54.21
67740;BME280;54536;50.090;14.420;2024-02-21T01:29:03;100143.25;;;10.91;54.55
67740;BME280;54536;50.090;14.420;2024-02-21T01:31:29;100135.25;;;11.04;54.33
67740;BME280;54536;50.090;14.420;2024-02-21T01:33:55;100134.53;;;10.91;54.26
67740;BME280;54536;50.090;14.420;2024-02-21T01:36:21;100124.59;;;10.94;54.50
67740;BME280;54536;50.090;14.420;2024-02-21T01:38:47;100127.25;;;11.06;53.76
67740;BME280;54536;50.090;14.420;2024-02-21T01:41:13;100127.59;;;10.90;54.05
67740;BME280;54536;50.090;14.420;2024-02-21T01:43:39;100127.47;;;10.91;53.97
67740;BME280;54536;50.090;14.420;2024-02-21T01:46:05;100126.41;;;10.94;53.86
67740;BME280;54536;50.090;14.420;2024-02-21T01:48:31;100121.50;;;11.00;53.82
67740;BME280;54536;50.090;14.420;2024-02-21T01:50:57;100115.88;;;10.94;53.88
67740;BME280;54536;50.090;14.420;2024-02-21T01:53:29;100115.28;;;11.13;53.47
67740;BME280;54536;50.090;14.420;2024-02-21T01:55:56;100117.91;;;11.01;53.90
67740;BME280;54536;50.090;14.420;2024-02-21T01:58:23;100107.00;;;10.95;53.79
67740;BME280;54536;50.090;14.420;2024-02-21T02:00:50;100097.94;;;10.99;53.75
67740;BME280;54536;50.090;14.420;2024-02-21T02:03:16;100100.09;;;10.94;53.93
67740;BME280;54536;50.090;14.420;2024-02-21T02:05:47;100101.88;;;10.82;54.31
67740;BME280;54536;50.090;14.420;2024-02-21T02:08:15;100097.59;;;10.92;54.24
67740;BME280;54536;50.090;14.420;2024-02-21T02:10:42;100090.63;;;10.91;54.04
67740;BME280;54536;50.090;14.420;2024-02-21T02:13:09;100101.75;;;10.95;54.33
67740;BME280;54536;50.090;14.420;2024-02-21T02:15:43;100091.81;;;10.98;54.45
67740;BME280;54536;50.090;14.420;2024-02-21T02:18:11;100093.75;;;10.85;54.76
67740;BME280;54536;50.090;14.420;2024-02-21T02:20:38;100092.69;;;10.99;54.34
67740;BME280;54536;50.090;14.420;2024-02-21T02:25:36;100084.03;;;11.08;53.93
67740;BME280;54536;50.090;14.420;2024-02-21T02:28:04;100080.34;;;10.99;54.12
67740;BME280;54536;50.090;14.420;2024-02-21T02:30:34;100081.63;;;11.16;54.19
67740;BME280;54536;50.090;14.420;2024-02-21T02:33:05;100069.59;;;11.02;54.14
67740;BME280;54536;50.090;14.420;2024-02-21T02:35:32;100067.66;;;11.05;54.17
67740;BME280;54536;50.090;14.420;2024-02-21T02:37:58;100065.47;;;11.21;54.23
67740;BME280;54536;50.090;14.420;2024-02-21T02:40:24;100052.19;;;11.22;53.80
67740;BME280;54536;50.090;14.420;2024-02-21T02:42:51;100055.72;;;11.00;54.13
67740;BME280;54536;50.090;14.420;2024-02-21T02:45:17;100055.94;;;11.09;53.90
67740;BME280;54536;50.090;14.420;2024-02-21T02:47:45;100055.94;;;11.09;54.38
67740;BME280;54536;50.090;14.420;2024-02-21T02:50:14;100050.22;;;10.92;54.21
67740;BME280;54536;50.090;14.420;2024-02-21T02:52:40;100040.63;;;11.02;54.34
67740;BME280;54536;50.090;14.420;2024-02-21T02:55:07;100040.44;;;10.83;55.04
67740;BME280;54536;50.090;14.420;2024-02-21T02:57:33;100029.28;;;10.91;54.39
67740;BME280;54536;50.090;14.420;2024-02-21T02:59:59;100031.91;;;11.02;54.56
67740;BME280;54536;50.090;14.420;2024-02-21T03:02:25;100031.09;;;10.90;54.92
67740;BME280;54536;50.090;14.420;2024-02-21T03:04:51;100032.16;;;10.99;54.87
67740;BME280;54536;50.090;14.420;2024-02-21T03:07:17;100022.72;;;10.96;54.82
67740;BME280;54536;50.090;14.420;2024-02-21T03:09:43;100031.28;;;10.98;54.74
67740;BME280;54536;50.090;14.420;2024-02-21T03:12:09;100026.75;;;11.00;54.56
67740;BME280;54536;50.090;14.420;2024-02-21T03:14:35;100024.94;;;11.12;54.58
67740;BME280;54536;50.090;14.420;2024-02-21T03:17:02;100021.19;;;11.26;54.01
67740;BME280;54536;50.090;14.420;2024-02-21T03:19:29;100023.69;;;10.95;54.75
67740;BME280;54536;50.090;14.420;2024-02-21T03:21:55;100032.16;;;10.99;54.44
67740;BME280;54536;50.090;14.420;2024-02-21T03:24:21;100022.72;;;10.96;54.34
67740;BME280;54536;50.090;14.420;2024-02-21T03:26:47;100027.28;;;10.83;55.04
67740;BME280;54536;50.090;14.420;2024-02-21T03:29:16;100029.66;;;10.86;55.14
67740;BME280;54536;50.090;14.420;2024-02-21T03:31:43;100019.88;;;10.77;55.29
67740;BME280;54536;50.090;14.420;2024-02-21T03:34:11;100017.34;;;10.87;55.26
67740;BME280;54536;50.090;14.420;2024-02-21T03:36:37;100014.97;;;10.84;55.02
67740;BME280;54536;50.090;14.420;2024-02-21T03:39:04;100015.31;;;10.90;54.60
67740;BME280;54536;50.090;14.420;2024-02-21T03:41:30;100009.41;;;10.98;54.63
67740;BME280;54536;50.090;14.420;2024-02-21T03:43:56;100015.06;;;10.93;55.02
67740;BME280;54536;50.090;14.420;2024-02-21T03:46:24;100006.03;;;11.07;54.32
67740;BME280;54536;50.090;14.420;2024-02-21T03:48:51;100011.47;;;10.94;54.59
67740;BME280;54536;50.090;14.420;2024-02-21T03:51:17;100009.66;;;10.95;54.70
67740;BME280;54536;50.090;14.420;2024-02-21T03:53:43;100007.22;;;11.14;54.34
67740;BME280;54536;50.090;14.420;2024-02-21T03:56:09;100002.44;;;11.08;54.72
67740;BME280;54536;50.090;14.420;2024-02-21T03:58:34;100010.53;;;10.84;55.53
67740;BME280;54536;50.090;14.420;2024-02-21T04:01:01;100010.28;;;10.87;55.16
67740;BME280;54536;50.090;14.420;2024-02-21T04:03:28;100006.56;;;10.90;55.59
67740;BME280;54536;50.090;14.420;2024-02-21T04:05:55;99999.38;;;11.03;54.96
67740;BME280;54536;50.090;14.420;2024-02-21T04:08:22;99990.16;;;10.97;55.23
67740;BME280;54536;50.090;14.420;2024-02-21T04:10:48;100001.22;;;10.80;55.36
67740;BME280;54536;50.090;14.420;2024-02-21T04:13:14;100007.69;;;10.76;55.58
67740;BME280;54536;50.090;14.420;2024-02-21T04:15:40;99992.09;;;10.95;55.11
67740;BME280;54536;50.090;14.420;2024-02-21T04:18:06;99994.59;;;10.97;55.11
67740;BME280;54536;50.090;14.420;2024-02-21T04:20:34;100006.47;;;10.80;55.58
67740;BME280;54536;50.090;14.420;2024-02-21T04:23:01;100006.22;;;10.83;55.51
67740;BME280;54536;50.090;14.420;2024-02-21T04:25:27;100000.94;;;10.94;54.76
67740;BME280;54536;50.090;14.420;2024-02-21T04:27:53;100002.19;;;10.79;55.64
67740;BME280;54536;50.090;14.420;2024-02-21T04:30:19;99994.78;;;10.73;55.91
67740;BME280;54536;50.090;14.420;2024-02-21T04:32:45;99987.00;;;10.71;55.59
67740;BME280;54536;50.090;14.420;2024-02-21T04:35:11;99986.84;;;10.84;55.58
67740;BME280;54536;50.090;14.420;2024-02-21T04:37:37;99974.69;;;10.72;55.39
67740;BME280;54536;50.090;14.420;2024-02-21T04:40:03;99981.00;;;10.81;55.56
67740;BME280;54536;50.090;14.420;2024-02-21T04:42:29;99977.16;;;10.85;55.43
67740;BME280;54536;50.090;14.420;2024-02-21T04:44:55;99968.47;;;10.73;55.44
67740;BME280;54536;50.090;14.420;2024-02-21T04:47:21;99963.69;;;10.67;55.81
67740;BME280;54536;50.090;14.420;2024-02-21T04:49:49;99964.44;;;10.58;56.13
67740;BME280;54536;50.090;14.420;2024-02-21T04:52:15;99961.06;;;10.55;56.25
67740;BME280;54536;50.090;14.420;2024-02-21T04:54:41;99959.47;;;10.75;55.96
67740;BME280;54536;50.090;14.420;2024-02-21T04:57:07;99956.75;;;10.66;55.93
67740;BME280;54536;50.090;14.420;2024-02-21T04:59:33;99966.44;;;10.65;56.29
67740;BME280;54536;50.090;14.420;2024-02-21T05:02:00;99961.28;;;10.75;55.34
67740;BME280;54536;50.090;14.420;2024-02-21T05:04:26;99962.72;;;10.79;55.27
67740;BME280;54536;50.090;14.420;2024-02-21T05:06:52;99965.09;;;10.82;55.37
67740;BME280;54536;50.090;14.420;2024-02-21T05:09:18;99968.47;;;10.73;55.36
67740;BME280;54536;50.090;14.420;2024-02-21T05:11:45;99959.72;;;10.72;55.58
67740;BME280;54536;50.090;14.420;2024-02-21T05:14:11;99956.25;;;10.72;55.78
67740;BME280;54536;50.090;14.420;2024-02-21T05:16:38;99958.69;;;10.64;55.55
67740;BME280;54536;50.090;14.420;2024-02-21T05:19:04;99953.38;;;10.75;55.76
67740;BME280;54536;50.090;14.420;2024-02-21T05:21:30;99956.50;;;10.69;55.72
67740;BME280;54536;50.090;14.420;2024-02-21T05:23:56;99958.84;;;10.94;55.08
67740;BME280;54536;50.090;14.420;2024-02-21T05:26:23;99953.72;;;10.82;55.79
67740;BME280;54536;50.090;14.420;2024-02-21T05:28:50;99951.59;;;10.75;55.49
67740;BME280;54536;50.090;14.420;2024-02-21T05:31:20;99948.13;;;10.75;55.90
67740;BME280;54536;50.090;14.420;2024-02-21T05:33:47;99955.31;;;10.73;55.90
67740;BME280;54536;50.090;14.420;2024-02-21T05:36:13;99954.22;;;10.75;55.65
67740;BME280;54536;50.090;14.420;2024-02-21T05:38:39;99968.63;;;10.60;56.09
67740;BME280;54536;50.090;14.420;2024-02-21T05:41:06;99957.47;;;10.68;56.20
67740;BME280;54536;50.090;14.420;2024-02-21T05:43:32;99962.78;;;10.89;55.74
67740;BME280;54536;50.090;14.420;2024-02-21T05:45:58;99955.50;;;10.92;55.40
67740;BME280;54536;50.090;14.420;2024-02-21T05:48:25;99962.94;;;10.87;55.44
67740;BME280;54536;50.090;14.420;2024-02-21T05:50:50;99954.41;;;10.95;55.73
67740;BME280;54536;50.090;14.420;2024-02-21T05:53:17;99949.63;;;10.89;55.56
67740;BME280;54536;50.090;14.420;2024-02-21T05:55:43;99955.38;;;10.94;55.32
67740;BME280;54536;50.090;14.420;2024-02-21T05:58:10;99947.38;;;10.95;55.45
67740;BME280;54536;50.090;14.420;2024-02-21T06:00:39;99940.88;;;10.99;55.31
67740;BME280;54536;50.090;14.420;2024-02-21T06:03:06;99939.75;;;10.81;55.72
67740;BME280;54536;50.090;14.420;2024-02-21T06:05:37;99938.94;;;11.01;55.68
67740;BME280;54536;50.090;14.420;2024-02-21T06:08:05;99946.22;;;11.09;55.00
67740;BME280;54536;50.090;14.420;2024-02-21T06:10:30;99940.06;;;10.99;54.98
67740;BME280;54536;50.090;14.420;2024-02-21T06:12:56;99934.06;;;10.97;55.34
67740;BME280;54536;50.090;14.420;2024-02-21T06:15:22;99935.13;;;11.06;55.30
67740;BME280;54536;50.090;14.420;2024-02-21T06:17:48;99940.63;;;11.02;55.49
67740;BME280;54536;50.090;14.420;2024-02-21T06:20:16;99946.50;;;10.95;55.37
67740;BME280;54536;50.090;14.420;2024-02-21T06:22:42;99938.41;;;10.87;55.55
67740;BME280;54536;50.090;14.420;2024-02-21T06:25:08;99936.47;;;10.89;55.88
67740;BME280;54536;50.090;14.420;2024-02-21T06:27:34;99937.44;;;10.99;55.21
67740;BME280;54536;50.090;14.420;2024-02-21T06:30:00;99938.50;;;10.96;55.04
67740;BME280;54536;50.090;14.420;2024-02-21T06:32:26;99933.69;;;11.01;55.24
67740;BME280;54536;50.090;14.420;2024-02-21T06:34:52;99938.84;;;11.03;55.53
67740;BME280;54536;50.090;14.420;2024-02-21T06:37:18;99927.84;;;10.98;55.74
67740;BME280;54536;50.090;14.420;2024-02-21T06:39:44;99940.59;;;11.14;55.00
67740;BME280;54536;50.090;14.420;2024-02-21T06:42:10;99935.56;;;11.11;55.02
67740;BME280;54536;50.090;14.420;2024-02-21T06:44:36;99933.31;;;11.06;54.97
67740;BME280;54536;50.090;14.420;2024-02-21T06:47:06;99937.69;;;11.17;55.28
67740;BME280;54536;50.090;14.420;2024-02-21T06:49:33;99938.84;;;11.03;55.19
67740;BME280;54536;50.090;14.420;2024-02-21T06:51:59;99942.44;;;11.02;54.81
67740;BME280;54536;50.090;14.420;2024-02-21T06:54:25;99932.66;;;10.93;55.19
67740;BME280;54536;50.090;14.420;2024-02-21T06:56:51;99932.50;;;11.06;54.88
67740;BME280;54536;50.090;14.420;2024-02-21T06:59:17;99926.91;;;10.99;55.17
67740;BME280;54536;50.090;14.420;2024-02-21T07:01:49;99933.75;;;11.11;55.04
67740;BME280;54536;50.090;14.420;2024-02-21T07:04:15;99926.44;;;11.15;54.97
67740;BME280;54536;50.090;14.420;2024-02-21T07:06:41;99921.97;;;11.06;54.99
67740;BME280;54536;50.090;14.420;2024-02-21T07:09:07;99919.19;;;11.07;55.24
67740;BME280;54536;50.090;14.420;2024-02-21T07:11:33;99920.56;;;11.22;54.82
67740;BME280;54536;50.090;14.420;2024-02-21T07:13:59;99913.75;;;11.20;54.54
67740;BME280;54536;50.090;14.420;2024-02-21T07:16:25;99910.16;;;11.21;54.62
67740;BME280;54536;50.090;14.420;2024-02-21T07:18:52;99913.03;;;11.18;54.89
67740;BME280;54536;50.090;14.420;2024-02-21T07:21:18;99907.25;;;11.24;54.19
67740;BME280;54536;50.090;14.420;2024-02-21T07:23:44;99905.16;;;11.39;54.30
67740;BME280;54536;50.090;14.420;2024-02-21T07:26:10;99899.19;;;11.37;54.29
67740;BME280;54536;50.090;14.420;2024-02-21T07:28:36;99906.50;;;11.12;54.95
67740;BME280;54536;50.090;14.420;2024-02-21T07:31:02;99903.97;;;11.11;55.07
67740;BME280;54536;50.090;14.420;2024-02-21T07:33:28;99904.44;;;11.16;55.10
67740;BME280;54536;50.090;14.420;2024-02-21T07:35:56;99906.03;;;11.07;55.46
67740;BME280;54536;50.090;14.420;2024-02-21T07:38:22;99912.94;;;11.19;55.47
67740;BME280;54536;50.090;14.420;2024-02-21T07:40:48;99908.75;;;11.17;55.18
67740;BME280;54536;50.090;14.420;2024-02-21T07:43:14;99909.78;;;11.25;55.24
67740;BME280;54536;50.090;14.420;2024-02-21T07:45:40;99909.47;;;11.19;55.09
67740;BME280;54536;50.090;14.420;2024-02-21T07:48:07;99918.69;;;11.13;55.07
67740;BME280;54536;50.090;14.420;2024-02-21T07:50:33;99908.56;;;11.09;55.39
67740;BME280;54536;50.090;14.420;2024-02-21T07:52:59;99911.59;;;11.25;55.02
67740;BME280;54536;50.090;14.420;2024-02-21T07:55:25;99901.34;;;11.11;55.64
67740;BME280;54536;50.090;14.420;2024-02-21T07:57:51;99901.34;;;11.11;55.20
67740;BME280;54536;50.090;14.420;2024-02-21T08:00:18;99907.44;;;11.11;55.40
67740;BME280;54536;50.090;14.420;2024-02-21T08:02:46;99903.88;;;11.33;54.55
67740;BME280;54536;50.090;14.420;2024-02-21T08:05:12;99900.00;;;11.16;54.83
67740;BME280;54536;50.090;14.420;2024-02-21T08:07:38;99900.34;;;11.23;54.67
67740;BME280;54536;50.090;14.420;2024-02-21T08:10:05;99898.09;;;11.18;55.22
67740;BME280;54536;50.090;14.420;2024-02-21T08:12:34;99886.66;;;11.08;55.05
67740;BME280;54536;50.090;14.420;2024-02-21T08:15:01;99871.38;;;11.23;55.10
67740;BME280;54536;50.090;14.420;2024-02-21T08:17:27;99871.19;;;11.36;54.97
67740;BME280;54536;50.090;14.420;2024-02-21T08:19:53;99865.34;;;11.32;54.71
67740;BME280;54536;50.090;14.420;2024-02-21T08:22:21;99862.16;;;11.29;55.13
67740;BME280;54536;50.090;14.420;2024-02-21T08:24:47;99875.41;;;11.27;54.93
67740;BME280;54536;50.090;14.420;2024-02-21T08:27:13;99874.34;;;11.30;55.07
67740;BME280;54536;50.090;14.420;2024-02-21T08:29:39;99869.19;;;11.49;55.50
67740;BME280;54536;50.090;14.420;2024-02-21T08:32:05;99867.53;;;11.48;54.71
67740;BME280;54536;50.090;14.420;2024-02-21T08:34:31;99860.59;;;11.26;55.29
67740;BME280;54536;50.090;14.420;2024-02-21T08:37:00;99862.16;;;11.29;55.51
67740;BME280;54536;50.090;14.420;2024-02-21T08:39:26;99854.41;;;11.37;55.36
67740;BME280;54536;50.090;14.420;2024-02-21T08:41:54;99854.81;;;11.32;55.77
67740;BME280;54536;50.090;14.420;2024-02-21T08:44:22;99851.97;;;11.45;55.53
67740;BME280;54536;50.090;14.420;2024-02-21T08:46:49;99850.03;;;11.47;55.35
67740;BME280;54536;50.090;14.420;2024-02-21T08:49:15;99850.25;;;11.34;55.78
67740;BME280;54536;50.090;14.420;2024-02-21T08:51:41;99857.75;;;11.39;55.62
67740;BME280;54536;50.090;14.420;2024-02-21T08:54:08;99860.06;;;11.53;55.91
67740;BME280;54536;50.090;14.420;2024-02-21T08:56:34;99847.03;;;11.52;55.26
67740;BME280;54536;50.090;14.420;2024-02-21T08:59:01;99856.13;;;11.47;55.62
67740;BME280;54536;50.090;14.420;2024-02-21T09:01:27;99864.50;;;11.53;55.57
67740;BME280;54536;50.090;14.420;2024-02-21T09:03:54;99865.63;;;11.60;55.05
67740;BME280;54536;50.090;14.420;2024-02-21T09:06:22;99870.13;;;11.69;55.13
67740;BME280;54536;50.090;14.420;2024-02-21T09:08:49;99866.66;;;11.47;55.41
67740;BME280;54536;50.090;14.420;2024-02-21T09:11:15;99878.88;;;11.48;56.38
67740;BME280;54536;50.090;14.420;2024-02-21T09:13:41;99875.16;;;11.51;55.76
67740;BME280;54536;50.090;14.420;2024-02-21T09:16:07;99870.16;;;11.48;56.23
67740;BME280;54536;50.090;14.420;2024-02-21T09:18:34;99882.53;;;11.57;55.93
67740;BME280;54536;50.090;14.420;2024-02-21T09:21:00;99871.88;;;11.59;55.25
67740;BME280;54536;50.090;14.420;2024-02-21T09:23:26;99869.44;;;11.77;55.19
67740;BME280;54536;50.090;14.420;2024-02-21T09:25:52;99865.16;;;11.76;54.57
67740;BME280;54536;50.090;14.420;2024-02-21T09:28:19;99856.78;;;11.91;54.66
67740;BME280;54536;50.090;14.420;2024-02-21T09:30:44;99848.19;;;11.99;53.98
67740;BME280;54536;50.090;14.420;2024-02-21T09:33:11;99849.78;;;12.21;53.56
67740;BME280;54536;50.090;14.420;2024-02-21T09:35:37;99852.28;;;12.23;53.28
67740;BME280;54536;50.090;14.420;2024-02-21T09:38:03;99856.47;;;12.35;52.69
67740;BME280;54536;50.090;14.420;2024-02-21T09:40:29;99845.78;;;12.17;53.13
67740;BME280;54536;50.090;14.420;2024-02-21T09:43:02;99841.47;;;12.26;52.83
67740;BME280;54536;50.090;14.420;2024-02-21T09:45:33;99839.84;;;12.44;52.85
67740;BME280;54536;50.090;14.420;2024-02-21T09:50:27;99825.28;;;12.50;52.41
67740;BME280;54536;50.090;14.420;2024-02-21T09:52:56;99820.41;;;12.45;51.86
67740;BME280;54536;50.090;14.420;2024-02-21T09:55:27;99810.41;;;12.58;51.48
67740;BME280;54536;50.090;14.420;2024-02-21T09:57:58;99812.91;;;12.60;51.44
67740;BME280;54536;50.090;14.420;2024-02-21T10:00:24;99801.66;;;12.58;51.27
67740;BME280;54536;50.090;14.420;2024-02-21T10:02:51;99803.63;;;12.75;50.95
67740;BME280;54536;50.090;14.420;2024-02-21T10:05:16;99805.28;;;12.86;50.67
67740;BME280;54536;50.090;14.420;2024-02-21T10:07:44;99803.19;;;12.89;50.27
67740;BME280;54536;50.090;14.420;2024-02-21T10:10:10;99798.84;;;13.08;50.15
67740;BME280;54536;50.090;14.420;2024-02-21T10:12:36;99802.69;;;13.23;49.38
67740;BME280;54536;50.090;14.420;2024-02-21T10:15:06;99804.94;;;13.18;49.71
67740;BME280;54536;50.090;14.420;2024-02-21T10:17:32;99807.31;;;13.11;49.82
67740;BME280;54536;50.090;14.420;2024-02-21T10:20:09;99812.00;;;13.27;49.06
67740;BME280;54536;50.090;14.420;2024-02-21T10:22:37;99808.81;;;13.14;49.19
67740;BME280;54536;50.090;14.420;2024-02-21T10:25:12;99801.19;;;13.11;49.36
67740;BME280;54536;50.090;14.420;2024-02-21T10:27:39;99804.06;;;13.18;49.16
67740;BME280;54536;50.090;14.420;2024-02-21T10:30:14;99795.50;;;13.25;48.96
67740;BME280;54536;50.090;14.420;2024-02-21T10:32:59;99783.53;;;13.31;49.03
67740;BME280;54536;50.090;14.420;2024-02-21T10:35:30;99786.44;;;13.38;48.97
67740;BME280;54536;50.090;14.420;2024-02-21T10:37:57;99801.41;;;13.37;48.65
67740;BME280;54536;50.090;14.420;2024-02-21T10:40:28;99786.25;;;13.39;48.64
67740;BME280;54536;50.090;14.420;2024-02-21T10:43:00;99797.91;;;13.46;48.32
67740;BME280;54536;50.090;14.420;2024-02-21T10:45:34;99787.06;;;13.49;47.68
67740;BME280;54536;50.090;14.420;2024-02-21T10:50:45;99780.00;;;13.77;45.46
67740;BME280;54536;50.090;14.420;2024-02-21T10:53:17;99787.16;;;13.85;45.63
67740;BME280;54536;50.090;14.420;2024-02-21T10:55:58;99768.88;;;13.74;45.19
67740;BME280;54536;50.090;14.420;2024-02-21T10:58:30;99784.97;;;13.80;45.18
67740;BME280;54536;50.090;14.420;2024-02-21T11:00:56;99774.25;;;13.82;45.35
67740;BME280;54536;50.090;14.420;2024-02-21T11:03:23;99788.78;;;13.68;45.70
67740;BME280;54536;50.090;14.420;2024-02-21T11:05:51;99783.34;;;13.70;45.69
67740;BME280;54536;50.090;14.420;2024-02-21T11:08:18;99775.38;;;13.79;45.72
67740;BME280;54536;50.090;14.420;2024-02-21T11:10:46;99784.25;;;13.61;45.70
67740;BME280;54536;50.090;14.420;2024-02-21T11:13:12;99773.03;;;13.49;46.35
67740;BME280;54536;50.090;14.420;2024-02-21T11:15:39;99781.22;;;13.46;46.54
67740;BME280;54536;50.090;14.420;2024-02-21T11:18:05;99783.13;;;13.53;46.17
67740;BME280;54536;50.090;14.420;2024-02-21T11:20:33;99774.09;;;13.56;46.78
67740;BME280;54536;50.090;14.420;2024-02-21T11:23:00;99767.25;;;13.63;46.61
67740;BME280;54536;50.090;14.420;2024-02-21T11:25:29;99759.25;;;13.73;46.47
67740;BME280;54536;50.090;14.420;2024-02-21T11:28:00;99761.91;;;13.73;46.56
67740;BME280;54536;50.090;14.420;2024-02-21T11:30:27;99751.56;;;13.79;46.33
67740;BME280;54536;50.090;14.420;2024-02-21T11:33:06;99745.97;;;13.65;46.41
67740;BME280;54536;50.090;14.420;2024-02-21T11:35:34;99744.69;;;13.69;46.70
67740;BME280;54536;50.090;14.420;2024-02-21T11:38:13;99742.50;;;13.64;47.11
67740;BME280;54536;50.090;14.420;2024-02-21T11:40:45;99730.94;;;13.65;46.93
67740;BME280;54536;50.090;14.420;2024-02-21T11:43:12;99731.78;;;13.66;46.68
67740;BME280;54536;50.090;14.420;2024-02-21T11:45:38;99729.31;;;13.82;47.11
67740;BME280;54536;50.090;14.420;2024-02-21T11:48:06;99722.06;;;13.84;47.12
67740;BME280;54536;50.090;14.420;2024-02-21T11:50:33;99719.03;;;13.79;46.92
67740;BME280;54536;50.090;14.420;2024-02-21T11:53:00;99713.91;;;13.77;46.67
67740;BME280;54536;50.090;14.420;2024-02-21T11:55:25;99709.97;;;13.81;46.98
67740;BME280;54536;50.090;14.420;2024-02-21T11:57:51;99695.94;;;13.99;46.77
67740;BME280;54536;50.090;14.420;2024-02-21T12:00:19;99688.59;;;13.93;46.78
67740;BME280;54536;50.090;14.420;2024-02-21T12:02:50;99687.50;;;14.13;46.00
67740;BME280;54536;50.090;14.420;2024-02-21T12:05:18;99693.00;;;14.20;45.96
67740;BME280;54536;50.090;14.420;2024-02-21T12:07:46;99686.81;;;14.29;45.83
67740;BME280;54536;50.090;14.420;2024-02-21T12:10:12;99676.78;;;14.41;45.75
67740;BME280;54536;50.090;14.420;2024-02-21T12:12:39;99670.19;;;14.45;45.58
67740;BME280;54536;50.090;14.420;2024-02-21T12:15:06;99673.78;;;14.54;45.33
67740;BME280;54536;50.090;14.420;2024-02-21T12:17:34;99658.28;;;14.59;45.43
67740;BME280;54536;50.090;14.420;2024-02-21T12:20:03;99665.53;;;14.57;44.93
67740;BME280;54536;50.090;14.420;2024-02-21T12:22:37;99659.63;;;14.63;45.30
67740;BME280;54536;50.090;14.420;2024-02-21T12:25:04;99653.44;;;14.54;44.97
67740;BME280;54536;50.090;14.420;2024-02-21T12:27:41;99648.81;;;14.56;45.00
67740;BME280;54536;50.090;14.420;2024-02-21T12:30:07;99646.63;;;14.51;44.63
67740;BME280;54536;50.090;14.420;2024-02-21T12:32:36;99647.75;;;14.49;45.00
67740;BME280;54536;50.090;14.420;2024-02-21T12:35:02;99639.81;;;14.49;45.18
67740;BME280;54536;50.090;14.420;2024-02-21T12:37:29;99636.72;;;14.54;45.20
67740;BME280;54536;50.090;14.420;2024-02-21T12:39:55;99624.91;;;14.66;45.74
67740;BME280;54536;50.090;14.420;2024-02-21T12:42:21;99618.06;;;14.55;45.40
67740;BME280;54536;50.090;14.420;2024-02-21T12:44:49;99615.34;;;14.73;45.39
67740;BME280;54536;50.090;14.420;2024-02-21T12:47:15;99609.22;;;14.72;45.33
67740;BME280;54536;50.090;14.420;2024-02-21T12:49:41;99595.78;;;14.66;44.94
67740;BME280;54536;50.090;14.420;2024-02-21T12:52:07;99595.91;;;14.56;45.33
67740;BME280;54536;50.090;14.420;2024-02-21T12:54:33;99585.78;;;14.51;45.20